Time,TemperatureF,DewpointF,PressureIn,WindDirection,WindDirectionDegrees,WindSpeedMPH,WindSpeedGustMPH,Humidity,HourlyPrecipIn,Conditions,Clouds,dailyrainin,SoftwareType,DateUTC
2013-02-23 00:02:00,16.0,4.1,23.15,North,0,3.0,5.0,59,0.00,,,0.24,meteohub,2013-02-23 07:02:00,
2013-02-23 00:07:00,16.0,4.5,23.14,North,0,4.0,5.0,60,0.00,,,0.00,meteohub,2013-02-23 07:07:00,
2013-02-23 00:12:00,16.2,4.6,23.14,NNE,23,6.0,6.0,60,0.00,,,0.00,meteohub,2013-02-23 07:12:00,
2013-02-23 00:17:00,16.2,4.6,23.13,NE,45,8.0,8.0,60,0.00,,,0.00,meteohub,2013-02-23 07:17:00,
2013-02-23 00:22:00,16.2,4.6,23.13,NE,45,4.0,8.0,60,0.00,,,0.00,meteohub,2013-02-23 07:22:00,
2013-02-23 00:27:00,16.3,4.8,23.13,North,0,4.0,8.0,60,0.00,,,0.00,meteohub,2013-02-23 07:27:00,
2013-02-23 00:32:00,16.3,4.8,23.13,NNE,23,5.0,8.0,60,0.00,,,0.00,meteohub,2013-02-23 07:32:00,
2013-02-23 00:37:00,16.3,4.8,23.13,NW,315,7.0,8.0,60,0.00,,,0.00,meteohub,2013-02-23 07:37:00,
2013-02-23 00:42:00,16.2,4.3,23.13,NNE,23,4.0,8.0,59,0.00,,,0.00,meteohub,2013-02-23 07:42:00,
2013-02-23 00:47:00,16.0,4.1,23.13,North,0,7.0,7.0,59,0.00,,,0.00,meteohub,2013-02-23 07:47:00,
2013-02-23 00:52:00,15.6,4.3,23.13,North,0,4.0,7.0,60,0.00,,,0.00,meteohub,2013-02-23 07:52:00,
2013-02-23 00:57:00,15.4,4.1,23.12,NNW,338,6.0,7.0,60,0.00,,,0.00,meteohub,2013-02-23 07:57:00,
2013-02-23 01:02:00,15.3,4.3,23.12,North,0,6.0,7.0,61,0.00,,,0.00,meteohub,2013-02-23 08:02:00,
2013-02-23 01:07:00,15.3,4.3,23.12,North,0,6.0,6.0,61,0.00,,,0.00,meteohub,2013-02-23 08:07:00,
2013-02-23 01:12:00,15.3,4.6,23.11,NNW,338,5.0,6.0,62,0.00,,,0.00,meteohub,2013-02-23 08:12:00,
2013-02-23 01:17:00,15.4,4.8,23.12,North,0,6.0,6.0,62,0.00,,,0.00,meteohub,2013-02-23 08:17:00,
2013-02-23 01:22:00,15.3,4.6,23.11,NNE,23,4.0,8.0,62,0.00,,,0.00,meteohub,2013-02-23 08:22:00,
2013-02-23 01:27:00,15.3,4.3,23.11,NE,45,5.0,8.0,61,0.00,,,0.00,meteohub,2013-02-23 08:27:00,
2013-02-23 01:32:00,15.1,4.1,23.11,NE,45,5.0,7.0,61,0.00,,,0.00,meteohub,2013-02-23 08:32:00,
2013-02-23 01:37:00,15.1,4.1,23.11,NE,45,6.0,7.0,61,0.00,,,0.00,meteohub,2013-02-23 08:37:00,
2013-02-23 01:42:00,15.1,4.5,23.11,North,0,4.0,6.0,62,0.00,,,0.00,meteohub,2013-02-23 08:42:00,
2013-02-23 01:47:00,14.9,4.3,23.10,NNE,23,3.0,6.0,62,0.00,,,0.00,meteohub,2013-02-23 08:47:00,
2013-02-23 01:52:00,15.1,4.5,23.10,NNW,338,2.0,6.0,62,0.00,,,0.00,meteohub,2013-02-23 08:52:00,
2013-02-23 01:57:00,15.1,4.5,23.10,NE,45,4.0,4.0,62,0.00,,,0.00,meteohub,2013-02-23 08:57:00,
2013-02-23 02:02:00,15.3,4.6,23.10,NE,45,5.0,5.0,62,0.00,,,0.00,meteohub,2013-02-23 09:02:00,
2013-02-23 02:07:00,15.4,5.2,23.10,SW,225,6.0,6.0,63,0.00,,,0.00,meteohub,2013-02-23 09:07:00,
2013-02-23 02:12:00,15.6,5.4,23.09,NE,45,4.0,6.0,63,0.00,,,0.00,meteohub,2013-02-23 09:12:00,
2013-02-23 02:17:00,15.8,5.2,23.10,North,0,3.0,6.0,62,0.00,,,0.00,meteohub,2013-02-23 09:17:00,
2013-02-23 02:22:00,16.0,5.2,23.10,West,270,3.0,6.0,62,0.00,,,0.00,meteohub,2013-02-23 09:22:00,
2013-02-23 02:27:00,16.2,5.4,23.09,North,0,5.0,6.0,62,0.00,,,0.00,meteohub,2013-02-23 09:27:00,
2013-02-23 02:32:00,16.2,5.4,23.09,NE,45,4.0,6.0,62,0.00,,,0.00,meteohub,2013-02-23 09:32:00,
2013-02-23 02:37:00,16.2,5.4,23.09,North,0,4.0,6.0,62,0.00,,,0.00,meteohub,2013-02-23 09:37:00,
2013-02-23 02:42:00,16.3,5.5,23.08,North,0,6.0,6.0,62,0.00,,,0.00,meteohub,2013-02-23 09:42:00,
2013-02-23 02:47:00,16.3,5.5,23.08,NNW,338,5.0,6.0,62,0.00,,,0.00,meteohub,2013-02-23 09:47:00,
2013-02-23 02:52:00,16.5,5.7,23.07,NW,315,4.0,6.0,62,0.00,,,0.00,meteohub,2013-02-23 09:52:00,
2013-02-23 02:57:00,16.5,5.7,23.07,North,0,4.0,6.0,62,0.00,,,0.00,meteohub,2013-02-23 09:57:00,
2013-02-23 03:02:00,16.5,5.7,23.06,NNE,23,5.0,6.0,62,0.00,,,0.00,meteohub,2013-02-23 10:02:00,
2013-02-23 03:07:00,16.5,5.7,23.06,NNE,23,5.0,6.0,62,0.00,,,0.00,meteohub,2013-02-23 10:07:00,
2013-02-23 03:12:00,16.3,5.5,23.06,North,0,5.0,5.0,62,0.00,,,0.00,meteohub,2013-02-23 10:12:00,
2013-02-23 03:17:00,16.3,5.5,23.06,NE,45,4.0,7.0,62,0.00,,,0.00,meteohub,2013-02-23 10:17:00,
2013-02-23 03:22:00,16.3,5.5,23.06,North,0,4.0,7.0,62,0.00,,,0.00,meteohub,2013-02-23 10:22:00,
2013-02-23 03:27:00,16.5,5.7,23.05,NNE,23,7.0,7.0,62,0.00,,,0.00,meteohub,2013-02-23 10:27:00,
2013-02-23 03:33:00,16.7,5.9,23.05,NNE,23,6.0,7.0,62,0.00,,,0.00,meteohub,2013-02-23 10:33:00,
2013-02-23 03:38:00,16.7,5.9,23.05,North,0,8.0,9.0,62,0.00,,,0.00,meteohub,2013-02-23 10:38:00,
2013-02-23 03:43:00,16.9,6.1,23.05,NNW,338,6.0,9.0,62,0.00,,,0.00,meteohub,2013-02-23 10:43:00,
2013-02-23 03:48:00,16.9,6.1,23.04,NE,45,9.0,9.0,62,0.00,,,0.00,meteohub,2013-02-23 10:48:00,
2013-02-23 03:53:00,16.7,5.9,23.03,NNE,23,9.0,11.0,62,0.00,,,0.00,meteohub,2013-02-23 10:53:00,
2013-02-23 03:58:00,16.9,6.1,23.03,NE,45,7.0,11.0,62,0.00,,,0.00,meteohub,2013-02-23 10:58:00,
2013-02-23 04:03:00,17.1,6.3,23.03,North,0,3.0,12.0,62,0.00,,,0.00,meteohub,2013-02-23 11:03:00,
2013-02-23 04:08:00,18.0,6.8,23.02,NW,315,7.0,12.0,61,0.00,,,0.00,meteohub,2013-02-23 11:08:00,
2013-02-23 04:13:00,19.2,8.4,23.02,WNW,293,3.0,12.0,62,0.00,,,0.00,meteohub,2013-02-23 11:13:00,
2013-02-23 04:18:00,20.5,10.6,23.02,WNW,293,3.0,8.0,65,0.00,,,0.00,meteohub,2013-02-23 11:18:00,
2013-02-23 04:23:00,20.5,9.9,23.03,East,90,2.0,8.0,63,0.00,,,0.00,meteohub,2013-02-23 11:23:00,
2013-02-23 04:29:00,19.9,8.6,23.02,North,0,3.0,8.0,61,0.00,,,0.00,meteohub,2013-02-23 11:29:00,
2013-02-23 04:34:00,19.4,7.7,23.02,SW,225,4.0,8.0,60,0.00,,,0.00,meteohub,2013-02-23 11:34:00,
2013-02-23 04:39:00,19.4,8.1,23.03,North,0,2.0,4.0,61,0.00,,,0.00,meteohub,2013-02-23 11:39:00,
2013-02-23 04:44:00,19.2,6.4,23.03,North,0,4.0,5.0,57,0.00,,,0.00,meteohub,2013-02-23 11:44:00,
2013-02-23 04:49:00,19.0,6.6,23.02,SW,225,2.0,8.0,58,0.00,,,0.00,meteohub,2013-02-23 11:49:00,
2013-02-23 04:54:00,18.7,6.4,23.01,NNE,23,4.0,8.0,58,0.00,,,0.00,meteohub,2013-02-23 11:54:00,
2013-02-23 04:59:00,18.3,6.1,23.01,NNW,338,2.0,8.0,58,0.00,,,0.00,meteohub,2013-02-23 11:59:00,
2013-02-23 05:04:00,18.3,6.1,23.01,NNW,338,2.0,7.0,58,0.00,,,0.00,meteohub,2013-02-23 12:04:00,
2013-02-23 05:09:00,18.1,6.3,23.01,North,0,4.0,7.0,59,0.00,,,0.00,meteohub,2013-02-23 12:09:00,
2013-02-23 05:14:00,18.5,6.6,23.00,NW,315,2.0,7.0,59,0.00,,,0.00,meteohub,2013-02-23 12:14:00,
2013-02-23 05:20:00,19.2,7.2,23.01,SE,135,3.0,4.0,59,0.00,,,0.00,meteohub,2013-02-23 12:20:00,
2013-02-23 05:25:00,20.1,9.1,23.00,South,180,1.0,4.0,62,0.00,,,0.00,meteohub,2013-02-23 12:25:00,
2013-02-23 05:30:00,20.5,9.1,23.00,South,180,2.0,4.0,61,0.00,,,0.00,meteohub,2013-02-23 12:30:00,
2013-02-23 05:35:00,21.0,9.7,23.00,North,0,4.0,4.0,61,0.00,,,0.00,meteohub,2013-02-23 12:35:00,
2013-02-23 05:40:00,21.7,9.7,23.00,NE,45,4.0,4.0,59,0.00,,,0.00,meteohub,2013-02-23 12:40:00,
2013-02-23 05:45:00,22.1,9.5,23.00,North,0,5.0,5.0,58,0.00,,,0.00,meteohub,2013-02-23 12:45:00,
2013-02-23 05:50:00,22.5,9.5,23.00,North,0,2.0,8.0,57,0.00,,,0.00,meteohub,2013-02-23 12:50:00,
2013-02-23 05:55:00,22.5,9.1,22.99,NE,45,4.0,8.0,56,0.00,,,0.00,meteohub,2013-02-23 12:55:00,
2013-02-23 06:00:00,22.5,9.1,22.99,WNW,293,6.0,8.0,56,0.00,,,0.00,meteohub,2013-02-23 13:00:00,
2013-02-23 06:05:00,21.7,8.4,22.99,North,0,9.0,11.0,56,0.00,,,0.00,meteohub,2013-02-23 13:05:00,
2013-02-23 06:11:00,20.8,8.4,22.98,North,0,7.0,11.0,58,0.00,,,0.00,meteohub,2013-02-23 13:11:00,
2013-02-23 06:16:00,20.1,8.1,22.98,North,0,8.0,11.0,59,0.00,,,0.00,meteohub,2013-02-23 13:16:00,
2013-02-23 06:21:00,20.1,8.4,22.98,NNW,338,4.0,9.0,60,0.00,,,0.00,meteohub,2013-02-23 13:21:00,
2013-02-23 06:26:00,20.3,8.6,22.97,NW,315,5.0,11.0,60,0.00,,,0.00,meteohub,2013-02-23 13:26:00,
2013-02-23 06:31:00,20.3,8.6,22.97,NNE,23,7.0,11.0,60,0.00,,,0.00,meteohub,2013-02-23 13:31:00,
2013-02-23 06:36:00,20.5,8.8,22.97,North,0,4.0,11.0,60,0.00,,,0.00,meteohub,2013-02-23 13:36:00,
2013-02-23 06:41:00,20.3,9.0,22.96,North,0,10.0,10.0,61,0.00,,,0.00,meteohub,2013-02-23 13:41:00,
2013-02-23 06:46:00,20.1,8.8,22.96,North,0,11.0,11.0,61,0.00,,,0.00,meteohub,2013-02-23 13:46:00,
2013-02-23 06:51:00,20.3,9.3,22.97,North,0,9.0,11.0,62,0.00,,,0.00,meteohub,2013-02-23 13:51:00,
2013-02-23 06:57:00,19.8,9.1,22.96,NE,45,5.0,11.0,63,0.00,,,0.00,meteohub,2013-02-23 13:57:00,
2013-02-23 07:02:00,19.9,9.3,22.96,NNW,338,7.0,11.0,63,0.00,,,0.00,meteohub,2013-02-23 14:02:00,
2013-02-23 07:07:00,19.9,9.3,22.96,NNW,338,7.0,9.0,63,0.00,,,0.00,meteohub,2013-02-23 14:07:00,
2013-02-23 07:12:00,20.5,9.5,22.96,NW,315,8.0,8.0,62,0.00,,,0.00,meteohub,2013-02-23 14:12:00,
2013-02-23 07:17:00,20.7,9.3,22.96,North,0,5.0,8.0,61,0.00,,,0.00,meteohub,2013-02-23 14:17:00,
2013-02-23 07:22:00,21.0,9.7,22.96,North,0,4.0,9.0,61,0.00,,,0.00,meteohub,2013-02-23 14:22:00,
2013-02-23 07:27:00,20.8,9.5,22.96,SW,225,3.0,9.0,61,0.00,,,0.00,meteohub,2013-02-23 14:27:00,
2013-02-23 07:32:00,20.7,9.7,22.95,SW,225,8.0,9.0,62,0.00,,,0.00,meteohub,2013-02-23 14:32:00,
2013-02-23 07:37:00,19.9,9.7,22.95,NNE,23,8.0,8.0,64,0.00,,,0.00,meteohub,2013-02-23 14:37:00,
2013-02-23 07:42:00,19.8,9.9,22.95,NE,45,6.0,9.0,65,0.00,,,0.00,meteohub,2013-02-23 14:42:00,
2013-02-23 07:48:00,19.2,8.4,22.94,North,0,7.0,9.0,62,0.00,,,0.00,meteohub,2013-02-23 14:48:00,
2013-02-23 07:53:00,19.4,10.6,22.93,SW,225,8.0,9.0,68,0.00,,,0.00,meteohub,2013-02-23 14:53:00,
2013-02-23 07:58:00,19.0,9.0,22.94,North,0,9.0,11.0,64,0.00,,,0.00,meteohub,2013-02-23 14:58:00,
2013-02-23 08:03:00,19.0,9.1,22.94,NNE,23,8.0,13.0,65,0.00,,,0.00,meteohub,2013-02-23 15:03:00,
2013-02-23 08:08:00,19.4,11.3,22.93,NW,315,11.0,13.0,70,0.00,,,0.00,meteohub,2013-02-23 15:08:00,
2013-02-23 08:13:00,19.6,11.7,22.92,NE,45,9.0,13.0,71,0.00,,,0.00,meteohub,2013-02-23 15:13:00,
2013-02-23 08:18:00,20.1,12.6,22.93,North,0,10.0,13.0,72,0.00,,,0.00,meteohub,2013-02-23 15:18:00,
2013-02-23 08:23:00,20.8,13.3,22.93,North,0,8.0,13.0,72,0.00,,,0.00,meteohub,2013-02-23 15:23:00,
2013-02-23 08:29:00,21.7,13.5,22.93,NW,315,4.0,13.0,70,0.00,,,0.00,meteohub,2013-02-23 15:29:00,
2013-02-23 08:34:00,23.4,14.4,22.93,NE,45,5.0,13.0,68,0.00,,,0.00,meteohub,2013-02-23 15:34:00,
2013-02-23 08:39:00,23.7,14.0,22.93,SW,225,2.0,8.0,66,0.00,,,0.00,meteohub,2013-02-23 15:39:00,
2013-02-23 08:44:00,23.9,14.2,22.92,West,270,4.0,10.0,66,0.00,,,0.00,meteohub,2013-02-23 15:44:00,
2013-02-23 08:49:00,24.3,14.5,22.92,NNE,23,2.0,10.0,66,0.00,,,0.00,meteohub,2013-02-23 15:49:00,
2013-02-23 08:54:00,25.2,14.7,22.92,NNE,23,4.0,5.0,64,0.00,,,0.00,meteohub,2013-02-23 15:54:00,
2013-02-23 08:59:00,26.1,14.5,22.92,SW,225,4.0,5.0,61,0.00,,,0.00,meteohub,2013-02-23 15:59:00,
2013-02-23 09:04:00,26.1,14.5,22.92,SW,225,4.0,7.0,61,0.00,,,0.00,meteohub,2013-02-23 16:04:00,
2013-02-23 09:09:00,26.8,12.7,22.91,North,0,4.0,7.0,55,0.00,,,0.00,meteohub,2013-02-23 16:09:00,
2013-02-23 09:15:00,26.6,12.6,22.91,SW,225,6.0,6.0,55,0.00,,,0.00,meteohub,2013-02-23 16:15:00,
2013-02-23 09:20:00,27.9,13.8,22.91,NE,45,7.0,7.0,55,0.00,,,0.00,meteohub,2013-02-23 16:20:00,
2013-02-23 09:25:00,28.4,16.0,22.91,South,180,4.0,7.0,59,0.00,,,0.00,meteohub,2013-02-23 16:25:00,
2013-02-23 09:30:00,28.0,13.5,22.91,SE,135,2.0,7.0,54,0.00,,,0.00,meteohub,2013-02-23 16:30:00,
2013-02-23 09:35:00,27.5,13.1,22.91,South,180,2.0,7.0,54,0.00,,,0.00,meteohub,2013-02-23 16:35:00,
2013-02-23 09:40:00,27.1,13.1,22.90,NW,315,1.0,5.0,55,0.00,,,0.00,meteohub,2013-02-23 16:40:00,
2013-02-23 09:45:00,27.1,14.0,22.90,SE,135,2.0,5.0,57,0.00,,,0.00,meteohub,2013-02-23 16:45:00,
2013-02-23 09:50:00,28.2,14.9,22.90,South,180,2.0,5.0,57,0.00,,,0.00,meteohub,2013-02-23 16:50:00,
2013-02-23 09:55:00,28.2,14.2,22.90,SW,225,2.0,5.0,55,0.00,,,0.00,meteohub,2013-02-23 16:55:00,
2013-02-23 10:00:00,28.0,14.0,22.91,SW,225,2.0,6.0,55,0.00,,,0.00,meteohub,2013-02-23 17:00:00,
2013-02-23 10:06:00,27.7,14.0,22.93,SE,135,2.0,6.0,56,0.00,,,0.00,meteohub,2013-02-23 17:06:00,
2013-02-23 10:11:00,26.6,13.1,22.93,South,180,3.0,6.0,56,0.00,,,0.00,meteohub,2013-02-23 17:11:00,
2013-02-23 10:16:00,25.5,14.0,22.94,North,0,2.0,6.0,61,0.00,,,0.00,meteohub,2013-02-23 17:16:00,
2013-02-23 10:21:00,24.6,14.2,22.93,SSE,158,2.0,7.0,64,0.00,,,0.00,meteohub,2013-02-23 17:21:00,
2013-02-23 10:26:00,24.4,14.7,22.93,SW,225,1.0,7.0,66,0.00,,,0.00,meteohub,2013-02-23 17:26:00,
2013-02-23 10:31:00,24.4,15.1,22.94,North,0,1.0,7.0,67,0.00,,,0.00,meteohub,2013-02-23 17:31:00,
2013-02-23 10:36:00,24.3,15.3,22.93,NW,315,0.0,3.0,68,0.00,,,0.00,meteohub,2013-02-23 17:36:00,
2013-02-23 10:41:00,24.3,15.3,22.93,North,0,2.0,4.0,68,0.00,,,0.00,meteohub,2013-02-23 17:41:00,
2013-02-23 10:46:00,24.3,15.6,22.93,NW,315,3.0,4.0,69,0.00,,,0.00,meteohub,2013-02-23 17:46:00,
2013-02-23 10:51:00,24.3,15.6,22.94,NNE,23,2.0,4.0,69,0.00,,,0.00,meteohub,2013-02-23 17:51:00,
2013-02-23 10:56:00,24.6,16.0,22.93,North,0,1.0,4.0,69,0.00,,,0.00,meteohub,2013-02-23 17:56:00,
2013-02-23 11:02:00,25.0,16.0,22.94,NE,45,0.0,4.0,68,0.00,,,0.00,meteohub,2013-02-23 18:02:00,
2013-02-23 11:07:00,25.0,16.0,22.94,NE,45,0.0,4.0,68,0.00,,,0.00,meteohub,2013-02-23 18:07:00,
2013-02-23 11:12:00,25.5,15.8,22.94,North,0,2.0,3.0,66,0.00,,,0.00,meteohub,2013-02-23 18:12:00,
2013-02-23 11:17:00,25.5,15.8,22.94,West,270,1.0,3.0,66,0.00,,,0.00,meteohub,2013-02-23 18:17:00,
2013-02-23 11:22:00,25.5,15.4,22.94,SW,225,1.0,3.0,65,0.00,,,0.00,meteohub,2013-02-23 18:22:00,
2013-02-23 11:27:00,25.2,14.7,22.95,South,180,0.0,2.0,64,0.00,,,0.00,meteohub,2013-02-23 18:27:00,
2013-02-23 11:32:00,25.0,14.2,22.95,South,180,0.0,1.0,63,0.00,,,0.00,meteohub,2013-02-23 18:32:00,
2013-02-23 11:37:00,24.6,14.2,22.95,NNW,338,0.0,2.0,64,0.00,,,0.00,meteohub,2013-02-23 18:37:00,
2013-02-23 11:42:00,24.4,14.4,22.95,SW,225,0.0,2.0,65,0.00,,,0.00,meteohub,2013-02-23 18:42:00,
2013-02-23 11:47:00,24.6,14.5,22.95,NNW,338,0.0,2.0,65,0.00,,,0.00,meteohub,2013-02-23 18:47:00,
2013-02-23 11:52:00,24.4,14.4,22.95,South,180,1.0,1.0,65,0.00,,,0.00,meteohub,2013-02-23 18:52:00,
2013-02-23 11:57:00,24.4,14.0,22.95,East,90,1.0,2.0,64,0.00,,,0.00,meteohub,2013-02-23 18:57:00,
2013-02-23 12:02:00,24.6,14.2,22.95,SE,135,1.0,2.0,64,0.00,,,0.00,meteohub,2013-02-23 19:02:00,
2013-02-23 12:07:00,24.6,14.5,22.95,South,180,2.0,2.0,65,0.00,,,0.00,meteohub,2013-02-23 19:07:00,
2013-02-23 12:12:00,25.0,14.5,22.95,West,270,1.0,2.0,64,0.00,,,0.00,meteohub,2013-02-23 19:12:00,
2013-02-23 12:17:00,25.9,15.4,22.95,South,180,2.0,2.0,64,0.00,,,0.00,meteohub,2013-02-23 19:17:00,
2013-02-23 12:23:00,26.6,14.5,22.95,SW,225,2.0,2.0,60,0.00,,,0.00,meteohub,2013-02-23 19:23:00,
2013-02-23 12:28:00,27.1,14.0,22.95,South,180,2.0,5.0,57,0.00,,,0.00,meteohub,2013-02-23 19:28:00,
2013-02-23 12:33:00,27.5,13.1,22.95,SW,225,1.0,5.0,54,0.00,,,0.00,meteohub,2013-02-23 19:33:00,
2013-02-23 12:38:00,28.0,13.1,22.95,South,180,2.0,5.0,53,0.00,,,0.00,meteohub,2013-02-23 19:38:00,
2013-02-23 12:43:00,28.6,15.3,22.95,NW,315,2.0,2.0,57,0.00,,,0.00,meteohub,2013-02-23 19:43:00,
2013-02-23 12:48:00,29.1,15.8,22.95,South,180,2.0,2.0,57,0.00,,,0.00,meteohub,2013-02-23 19:48:00,
2013-02-23 12:53:00,28.9,15.3,22.95,SW,225,2.0,2.0,56,0.00,,,0.00,meteohub,2013-02-23 19:53:00,
2013-02-23 12:58:00,28.8,15.4,22.94,North,0,1.0,2.0,57,0.00,,,0.00,meteohub,2013-02-23 19:58:00,
2013-02-23 13:03:00,28.8,15.8,22.95,SW,225,2.0,2.0,58,0.00,,,0.00,meteohub,2013-02-23 20:03:00,
2013-02-23 13:08:00,27.0,12.0,22.94,South,180,1.0,2.0,53,0.00,,,0.00,meteohub,2013-02-23 20:08:00,
2013-02-23 13:13:00,27.0,12.0,22.95,West,270,1.0,2.0,53,0.00,,,0.00,meteohub,2013-02-23 20:13:00,
2013-02-23 13:18:00,26.6,11.3,22.95,South,180,1.0,2.0,52,0.00,,,0.00,meteohub,2013-02-23 20:18:00,
2013-02-23 13:24:00,25.9,11.1,22.95,South,180,1.0,2.0,53,0.00,,,0.00,meteohub,2013-02-23 20:24:00,
2013-02-23 13:29:00,25.3,10.2,22.95,SSW,203,2.0,2.0,52,0.00,,,0.00,meteohub,2013-02-23 20:29:00,
2013-02-23 13:34:00,24.8,10.0,22.95,SW,225,1.0,2.0,53,0.00,,,0.00,meteohub,2013-02-23 20:34:00,
2013-02-23 13:39:00,24.4,10.2,22.95,NW,315,2.0,2.0,54,0.00,,,0.00,meteohub,2013-02-23 20:39:00,
2013-02-23 13:44:00,23.7,9.5,22.96,WSW,248,1.0,2.0,54,0.00,,,0.00,meteohub,2013-02-23 20:44:00,
2013-02-23 13:49:00,22.6,9.7,22.96,SW,225,2.0,2.0,57,0.00,,,0.00,meteohub,2013-02-23 20:49:00,
2013-02-23 13:54:00,21.6,9.9,22.97,South,180,2.0,2.0,60,0.00,,,0.00,meteohub,2013-02-23 20:54:00,
2013-02-23 13:59:00,20.5,10.6,22.97,SE,135,2.0,2.0,65,0.00,,,0.00,meteohub,2013-02-23 20:59:00,
2013-02-23 14:04:00,19.9,10.8,22.96,NW,315,2.0,3.0,67,0.00,,,0.00,meteohub,2013-02-23 21:04:00,
2013-02-23 14:09:00,19.9,10.8,22.97,South,180,2.0,3.0,67,0.00,,,0.00,meteohub,2013-02-23 21:09:00,
2013-02-23 14:15:00,19.9,10.8,22.97,North,0,3.0,3.0,67,0.00,,,0.00,meteohub,2013-02-23 21:15:00,
2013-02-23 14:20:00,19.6,9.7,22.97,South,180,3.0,3.0,65,0.00,,,0.00,meteohub,2013-02-23 21:20:00,
2013-02-23 14:25:00,19.4,8.6,22.97,South,180,4.0,4.0,62,0.00,,,0.00,meteohub,2013-02-23 21:25:00,
2013-02-23 14:30:00,19.2,6.8,22.97,South,180,3.0,4.0,58,0.00,,,0.00,meteohub,2013-02-23 21:30:00,
2013-02-23 14:35:00,19.0,7.2,22.97,SW,225,3.0,4.0,59,0.00,,,0.00,meteohub,2013-02-23 21:35:00,
2013-02-23 14:40:00,19.2,6.8,22.97,South,180,2.0,4.0,58,0.00,,,0.00,meteohub,2013-02-23 21:40:00,
2013-02-23 14:45:00,19.0,7.2,22.97,SE,135,2.0,4.0,59,0.00,,,0.00,meteohub,2013-02-23 21:45:00,
2013-02-23 14:50:00,19.4,9.5,22.97,South,180,3.0,4.0,65,0.00,,,0.00,meteohub,2013-02-23 21:50:00,
2013-02-23 14:55:00,19.9,9.7,22.97,SSE,158,2.0,4.0,64,0.00,,,0.00,meteohub,2013-02-23 21:55:00,
2013-02-23 15:00:00,19.9,9.3,22.97,South,180,1.0,3.0,63,0.00,,,0.00,meteohub,2013-02-23 22:00:00,
2013-02-23 15:06:00,19.9,9.3,22.96,South,180,1.0,3.0,63,0.00,,,0.00,meteohub,2013-02-23 22:06:00,
2013-02-23 15:11:00,21.6,9.9,22.96,SW,225,2.0,2.0,60,0.00,,,0.00,meteohub,2013-02-23 22:11:00,
2013-02-23 15:16:00,22.1,9.5,22.97,South,180,2.0,2.0,58,0.00,,,0.00,meteohub,2013-02-23 22:16:00,
2013-02-23 15:21:00,22.1,8.4,22.97,SW,225,1.0,2.0,55,0.00,,,0.00,meteohub,2013-02-23 22:21:00,
2013-02-23 15:26:00,21.6,7.9,22.97,SW,225,2.0,2.0,55,0.00,,,0.00,meteohub,2013-02-23 22:26:00,
2013-02-23 15:31:00,21.2,7.2,22.97,South,180,2.0,2.0,54,0.00,,,0.00,meteohub,2013-02-23 22:31:00,
2013-02-23 15:36:00,21.7,7.7,22.97,SW,225,2.0,2.0,54,0.00,,,0.00,meteohub,2013-02-23 22:36:00,
2013-02-23 15:41:00,22.1,8.1,22.96,East,90,2.0,2.0,54,0.00,,,0.00,meteohub,2013-02-23 22:41:00,
2013-02-23 15:46:00,21.9,7.0,22.97,West,270,2.0,2.0,52,0.00,,,0.00,meteohub,2013-02-23 22:46:00,
2013-02-23 15:51:00,21.6,6.6,22.97,West,270,1.0,2.0,52,0.00,,,0.00,meteohub,2013-02-23 22:51:00,
2013-02-23 15:57:00,21.6,6.3,22.97,East,90,2.0,2.0,51,0.00,,,0.00,meteohub,2013-02-23 22:57:00,
2013-02-23 16:02:00,21.7,6.4,22.97,North,0,4.0,4.0,51,0.00,,,0.00,meteohub,2013-02-23 23:02:00,
2013-02-23 16:07:00,21.6,4.8,22.98,South,180,1.0,7.0,48,0.00,,,0.00,meteohub,2013-02-23 23:07:00,
2013-02-23 16:12:00,22.3,5.5,22.98,NW,315,5.0,7.0,48,0.00,,,0.00,meteohub,2013-02-23 23:12:00,
2013-02-23 16:17:00,22.3,5.2,22.98,NW,315,6.0,7.0,47,0.00,,,0.00,meteohub,2013-02-23 23:17:00,
2013-02-23 16:22:00,21.9,4.3,22.98,NE,45,3.0,6.0,46,0.00,,,0.00,meteohub,2013-02-23 23:22:00,
2013-02-23 16:27:00,22.3,4.6,22.99,South,180,1.0,6.0,46,0.00,,,0.00,meteohub,2013-02-23 23:27:00,
2013-02-23 16:32:00,22.8,5.5,22.99,SW,225,0.0,6.0,47,0.00,,,0.00,meteohub,2013-02-23 23:32:00,
2013-02-23 16:37:00,22.8,6.1,22.99,North,0,0.0,4.0,48,0.00,,,0.00,meteohub,2013-02-23 23:37:00,
2013-02-23 16:42:00,22.6,5.9,23.00,SE,135,2.0,4.0,48,0.00,,,0.00,meteohub,2013-02-23 23:42:00,
2013-02-23 16:47:00,22.1,6.3,23.00,North,0,2.0,4.0,50,0.00,,,0.00,meteohub,2013-02-23 23:47:00,
2013-02-23 16:52:00,21.4,7.0,23.00,South,180,2.0,2.0,53,0.00,,,0.00,meteohub,2013-02-23 23:52:00,
2013-02-23 16:57:00,20.8,7.2,23.00,SW,225,2.0,3.0,55,0.00,,,0.00,meteohub,2013-02-23 23:57:00,
2013-02-23 17:02:00,20.7,7.5,22.99,SSE,158,1.0,3.0,56,0.00,,,0.00,meteohub,2013-02-24 00:02:00,
2013-02-23 17:07:00,20.7,7.5,22.99,SSE,158,1.0,3.0,56,0.00,,,0.00,meteohub,2013-02-24 00:07:00,
2013-02-23 17:12:00,19.2,6.1,22.99,SE,135,2.0,2.0,56,0.00,,,0.00,meteohub,2013-02-24 00:12:00,
2013-02-23 17:17:00,18.5,6.6,23.00,SSW,203,1.0,2.0,59,0.00,,,0.00,meteohub,2013-02-24 00:17:00,
2013-02-23 17:22:00,18.1,6.3,23.00,SE,135,3.0,3.0,59,0.00,,,0.00,meteohub,2013-02-24 00:22:00,
2013-02-23 17:27:00,17.8,6.3,23.00,South,180,2.0,3.0,60,0.00,,,0.00,meteohub,2013-02-24 00:27:00,
2013-02-23 17:33:00,17.8,5.9,23.00,SW,225,2.0,3.0,59,0.00,,,0.00,meteohub,2013-02-24 00:33:00,
2013-02-23 17:38:00,17.8,5.9,23.00,SE,135,1.0,3.0,59,0.00,,,0.00,meteohub,2013-02-24 00:38:00,
2013-02-23 17:43:00,17.6,5.7,23.00,SSE,158,2.0,2.0,59,0.00,,,0.00,meteohub,2013-02-24 00:43:00,
2013-02-23 17:48:00,17.4,5.9,23.00,SE,135,1.0,2.0,60,0.00,,,0.00,meteohub,2013-02-24 00:48:00,
2013-02-23 17:53:00,17.1,5.5,23.00,WSW,248,2.0,2.0,60,0.00,,,0.00,meteohub,2013-02-24 00:53:00,
2013-02-23 17:58:00,16.9,5.4,23.01,South,180,1.0,2.0,60,0.00,,,0.00,meteohub,2013-02-24 00:58:00,
2013-02-23 18:04:00,16.9,5.0,23.02,SSW,203,2.0,2.0,59,0.00,,,0.00,meteohub,2013-02-24 01:04:00,
2013-02-23 18:09:00,16.7,4.5,23.02,SW,225,1.0,2.0,58,0.00,,,0.00,meteohub,2013-02-24 01:09:00,
2013-02-23 18:14:00,16.5,4.3,23.01,SW,225,2.0,2.0,58,0.00,,,0.00,meteohub,2013-02-24 01:14:00,
2013-02-23 18:19:00,16.5,4.3,23.02,SW,225,1.0,2.0,58,0.00,,,0.00,meteohub,2013-02-24 01:19:00,
2013-02-23 18:24:00,16.5,4.6,23.02,South,180,1.0,2.0,59,0.00,,,0.00,meteohub,2013-02-24 01:24:00,
2013-02-23 18:29:00,16.3,4.8,23.02,South,180,0.0,2.0,60,0.00,,,0.00,meteohub,2013-02-24 01:29:00,
2013-02-23 18:34:00,16.3,5.5,23.02,NNE,23,1.0,2.0,62,0.00,,,0.00,meteohub,2013-02-24 01:34:00,
2013-02-23 18:39:00,16.3,5.5,23.02,South,180,2.0,2.0,62,0.00,,,0.00,meteohub,2013-02-24 01:39:00,
2013-02-23 18:44:00,16.3,5.2,23.02,South,180,2.0,2.0,61,0.00,,,0.00,meteohub,2013-02-24 01:44:00,
2013-02-23 18:49:00,16.3,4.8,23.03,SW,225,1.0,2.0,60,0.00,,,0.00,meteohub,2013-02-24 01:49:00,
2013-02-23 18:55:00,16.3,4.5,23.03,North,0,1.0,2.0,59,0.00,,,0.00,meteohub,2013-02-24 01:55:00,
2013-02-23 19:00:00,16.3,4.1,23.03,NW,315,0.0,2.0,58,0.00,,,0.00,meteohub,2013-02-24 02:00:00,
2013-02-23 19:05:00,16.3,4.1,23.02,NW,315,0.0,2.0,58,0.00,,,0.00,meteohub,2013-02-24 02:05:00,
2013-02-23 19:10:00,16.0,3.4,23.03,North,0,1.0,2.0,57,0.00,,,0.00,meteohub,2013-02-24 02:10:00,
2013-02-23 19:15:00,15.8,2.8,23.03,SW,225,0.0,2.0,56,0.00,,,0.00,meteohub,2013-02-24 02:15:00,
2013-02-23 19:20:00,15.6,3.0,23.03,South,180,1.0,1.0,57,0.00,,,0.00,meteohub,2013-02-24 02:20:00,
2013-02-23 19:25:00,15.6,2.7,23.03,SW,225,0.0,1.0,56,0.00,,,0.00,meteohub,2013-02-24 02:25:00,
2013-02-23 19:30:00,15.4,2.5,23.03,SW,225,0.0,2.0,56,0.00,,,0.00,meteohub,2013-02-24 02:30:00,
2013-02-23 19:35:00,15.4,2.5,23.03,WNW,293,2.0,2.0,56,0.00,,,0.00,meteohub,2013-02-24 02:35:00,
2013-02-23 19:40:00,15.6,2.7,23.03,SW,225,1.0,2.0,56,0.00,,,0.00,meteohub,2013-02-24 02:40:00,
2013-02-23 19:46:00,15.8,2.5,23.03,West,270,2.0,2.0,55,0.00,,,0.00,meteohub,2013-02-24 02:46:00,
2013-02-23 19:51:00,16.0,2.3,23.02,NW,315,1.0,2.0,54,0.00,,,0.00,meteohub,2013-02-24 02:51:00,
2013-02-23 19:56:00,16.5,2.3,23.03,SW,225,2.0,2.0,53,0.00,,,0.00,meteohub,2013-02-24 02:56:00,
2013-02-23 20:01:00,16.9,2.3,23.03,SW,225,2.0,2.0,52,0.00,,,0.00,meteohub,2013-02-24 03:01:00,
2013-02-23 20:06:00,17.1,1.6,23.03,SSW,203,1.0,2.0,50,0.00,,,0.00,meteohub,2013-02-24 03:06:00,
2013-02-23 20:11:00,17.1,1.6,23.02,South,180,2.0,2.0,50,0.00,,,0.00,meteohub,2013-02-24 03:11:00,
2013-02-23 20:16:00,17.1,1.2,23.02,SW,225,2.0,2.0,49,0.00,,,0.00,meteohub,2013-02-24 03:16:00,
2013-02-23 20:21:00,17.2,1.8,23.03,SE,135,2.0,2.0,50,0.00,,,0.00,meteohub,2013-02-24 03:21:00,
2013-02-23 20:26:00,17.1,1.6,23.03,SE,135,2.0,3.0,50,0.00,,,0.00,meteohub,2013-02-24 03:26:00,
2013-02-23 20:32:00,17.1,1.6,23.02,SE,135,2.0,3.0,50,0.00,,,0.00,meteohub,2013-02-24 03:32:00,
2013-02-23 20:37:00,16.9,1.4,23.02,NW,315,2.0,3.0,50,0.00,,,0.00,meteohub,2013-02-24 03:37:00,
2013-02-23 20:42:00,16.9,1.4,23.02,East,90,1.0,4.0,50,0.00,,,0.00,meteohub,2013-02-24 03:42:00,
2013-02-23 20:47:00,16.7,1.2,23.02,SE,135,2.0,4.0,50,0.00,,,0.00,meteohub,2013-02-24 03:47:00,
2013-02-23 20:52:00,16.7,1.2,23.02,SW,225,2.0,4.0,50,0.00,,,0.00,meteohub,2013-02-24 03:52:00,
2013-02-23 20:57:00,16.7,1.2,23.03,South,180,2.0,2.0,50,0.00,,,0.00,meteohub,2013-02-24 03:57:00,
2013-02-23 21:02:00,16.7,1.2,23.03,South,180,1.0,2.0,50,0.00,,,0.00,meteohub,2013-02-24 04:02:00,
2013-02-23 21:07:00,16.7,1.2,23.03,SW,225,2.0,2.0,50,0.00,,,0.00,meteohub,2013-02-24 04:07:00,
2013-02-23 21:12:00,16.7,0.9,23.03,SW,225,1.0,2.0,49,0.00,,,0.00,meteohub,2013-02-24 04:12:00,
2013-02-23 21:17:00,16.7,1.2,23.03,SSE,158,2.0,2.0,50,0.00,,,0.00,meteohub,2013-02-24 04:17:00,
2013-02-23 21:22:00,16.7,1.2,23.03,South,180,1.0,2.0,50,0.00,,,0.00,meteohub,2013-02-24 04:22:00,
2013-02-23 21:27:00,16.9,1.9,23.03,South,180,2.0,2.0,51,0.00,,,0.00,meteohub,2013-02-24 04:27:00,
2013-02-23 21:32:00,16.9,1.9,23.03,South,180,2.0,2.0,51,0.00,,,0.00,meteohub,2013-02-24 04:32:00,
2013-02-23 21:37:00,17.1,1.6,23.04,South,180,1.0,2.0,50,0.00,,,0.00,meteohub,2013-02-24 04:37:00,
2013-02-23 21:42:00,17.1,1.6,23.03,South,180,2.0,2.0,50,0.00,,,0.00,meteohub,2013-02-24 04:42:00,
2013-02-23 21:47:00,17.2,1.8,23.04,WSW,248,2.0,2.0,50,0.00,,,0.00,meteohub,2013-02-24 04:47:00,
2013-02-23 21:52:00,17.2,1.4,23.04,SW,225,2.0,2.0,49,0.00,,,0.00,meteohub,2013-02-24 04:52:00,
2013-02-23 21:57:00,17.2,1.4,23.04,North,0,1.0,2.0,49,0.00,,,0.00,meteohub,2013-02-24 04:57:00,
2013-02-23 22:00:00,17.2,1.4,23.04,NW,315,2.0,2.0,49,0.00,,,0.00,meteohub,2013-02-24 05:00:00,
2013-02-23 22:01:00,17.2,1.4,23.04,South,180,1.0,2.0,49,0.00,,,0.00,meteohub,2013-02-24 05:01:00,
2013-02-23 22:05:00,17.2,1.4,23.04,South,180,2.0,2.0,49,0.00,,,0.00,meteohub,2013-02-24 05:05:00,
2013-02-23 22:10:00,17.2,0.9,23.04,SW,225,2.0,3.0,48,0.00,,,0.00,meteohub,2013-02-24 05:10:00,
2013-02-23 22:15:00,17.2,1.4,23.04,SW,225,2.0,3.0,49,0.00,,,0.00,meteohub,2013-02-24 05:15:00,
2013-02-23 22:20:00,17.1,1.2,23.04,SE,135,2.0,2.0,49,0.00,,,0.00,meteohub,2013-02-24 05:20:00,
2013-02-23 22:25:00,17.1,1.2,23.04,North,0,2.0,2.0,49,0.00,,,0.00,meteohub,2013-02-24 05:25:00,
2013-02-23 22:30:00,17.1,1.6,23.05,West,270,2.0,3.0,50,0.00,,,0.00,meteohub,2013-02-24 05:30:00,
2013-02-23 22:36:00,16.9,1.4,23.05,South,180,2.0,3.0,50,0.00,,,0.00,meteohub,2013-02-24 05:36:00,
2013-02-23 22:41:00,17.1,2.1,23.04,West,270,2.0,3.0,51,0.00,,,0.00,meteohub,2013-02-24 05:41:00,
2013-02-23 22:46:00,17.1,2.5,23.04,South,180,1.0,2.0,52,0.00,,,0.00,meteohub,2013-02-24 05:46:00,
2013-02-23 22:51:00,17.1,2.5,23.04,SE,135,2.0,3.0,52,0.00,,,0.00,meteohub,2013-02-24 05:51:00,
2013-02-23 22:56:00,17.1,2.1,23.04,SW,225,3.0,3.0,51,0.00,,,0.00,meteohub,2013-02-24 05:56:00,
2013-02-23 23:01:00,17.1,2.1,23.05,South,180,2.0,3.0,51,0.00,,,0.00,meteohub,2013-02-24 06:01:00,
2013-02-23 23:06:00,17.1,2.1,23.05,South,180,1.0,3.0,51,0.00,,,0.00,meteohub,2013-02-24 06:06:00,
2013-02-23 23:11:00,16.9,2.3,23.05,South,180,1.0,3.0,52,0.00,,,0.00,meteohub,2013-02-24 06:11:00,
2013-02-23 23:16:00,16.9,2.3,23.05,South,180,2.0,3.0,52,0.00,,,0.00,meteohub,2013-02-24 06:16:00,
2013-02-23 23:21:00,16.9,2.3,23.05,South,180,2.0,2.0,52,0.00,,,0.00,meteohub,2013-02-24 06:21:00,
2013-02-23 23:26:00,16.7,2.5,23.05,SW,225,2.0,2.0,53,0.00,,,0.00,meteohub,2013-02-24 06:26:00,
2013-02-23 23:32:00,16.9,2.3,23.05,SW,225,2.0,3.0,52,0.00,,,0.00,meteohub,2013-02-24 06:32:00,
2013-02-23 23:37:00,17.1,2.5,23.05,SW,225,2.0,3.0,52,0.00,,,0.00,meteohub,2013-02-24 06:37:00,
2013-02-23 23:42:00,17.1,2.1,23.05,SE,135,2.0,3.0,51,0.00,,,0.00,meteohub,2013-02-24 06:42:00,
2013-02-23 23:47:00,17.1,2.1,23.05,South,180,2.0,2.0,51,0.00,,,0.00,meteohub,2013-02-24 06:47:00,
2013-02-23 23:52:00,17.1,2.1,23.05,South,180,1.0,2.0,51,0.00,,,0.00,meteohub,2013-02-24 06:52:00,
2013-02-23 23:57:00,16.9,1.9,23.05,South,180,2.0,2.0,51,0.00,,,0.00,meteohub,2013-02-24 06:57:00,